Time;durP1;ratioP1;P1;durP2;ratioP2;P2;SDS_P1;SDS_P2;PMS_P1;PMS_P2;Temp;Humidity;BMP_temperature;BMP_pressure;BME280_temperature;BME280_humidity;BME280_pressure;Samples;Min_cycle;Max_cycle;Signal;HPM_P1;HPM_P2
2022/06/14 00:03:03;;;;;;;;;14.33;13.00;;;;;19.66;75.19;100289.78;5080113;28;45469;-74
2022/06/14 00:05:29;;;;;;;;;15.00;14.33;;;;;19.59;75.24;100286.28;5080446;28;45410;-74
2022/06/14 00:07:54;;;;;;;;;16.67;14.33;;;;;19.54;75.62;100280.19;5080135;28;46003;-74
2022/06/14 00:10:20;;;;;;;;;15.67;14.00;;;;;19.58;75.22;100289.84;5080210;28;45995;-74
2022/06/14 00:12:46;;;;;;;;;12.33;11.67;;;;;19.59;74.94;100288.94;5080757;27;45434;-74
2022/06/14 00:15:11;;;;;;;;;13.67;13.33;;;;;19.56;75.07;100275.75;5080859;28;45225;-75
2022/06/14 00:17:37;;;;;;;;;15.00;13.67;;;;;19.44;75.20;100257.34;5080682;28;45320;-74
2022/06/14 00:20:03;;;;;;;;;11.67;11.67;;;;;19.47;75.58;100265.25;5080540;28;45472;-74
2022/06/14 00:22:28;;;;;;;;;15.00;14.00;;;;;19.45;75.67;100252.00;5080387;28;45350;-74
2022/06/14 00:24:55;;;;;;;;;14.00;13.33;;;;;19.46;75.42;100242.31;5062428;28;45597;-74
2022/06/14 00:27:21;;;;;;;;;14.33;13.33;;;;;19.46;75.21;100240.53;5080046;28;45426;-74
2022/06/14 00:29:46;;;;;;;;;14.67;14.00;;;;;19.46;75.77;100243.19;5080227;28;45453;-73
2022/06/14 00:32:12;;;;;;;;;13.00;13.00;;;;;19.47;75.32;100236.09;5080436;28;45414;-73
2022/06/14 00:34:38;;;;;;;;;13.00;13.00;;;;;19.46;75.32;100232.59;5080637;28;45458;-73
2022/06/14 00:37:04;;;;;;;;;12.33;12.33;;;;;19.47;75.33;100233.44;5080370;28;45351;-73
2022/06/14 00:39:29;;;;;;;;;15.00;13.67;;;;;19.45;74.95;100225.50;5088027;28;44773;-74
2022/06/14 00:41:56;;;;;;;;;13.67;13.67;;;;;19.43;75.24;100231.72;5080537;28;45462;-74
2022/06/14 00:44:24;;;;;;;;;12.00;11.67;;;;;19.41;75.18;100225.56;5081644;28;45287;-73
2022/06/14 00:47:05;;;;;;;;;14.00;13.33;;;;;19.39;75.36;100215.00;5084568;28;45398;-74
2022/06/14 00:49:44;;;;;;;;;16.33;14.33;;;;;19.37;75.40;100215.91;5079822;28;45296;-73
2022/06/14 00:52:33;;;;;;;;;17.00;14.33;;;;;19.32;75.23;100213.31;5080431;28;45367;-74
2022/06/14 00:55:10;;;;;;;;;14.67;12.67;;;;;19.14;75.32;100179.09;5080277;28;45497;-75
2022/06/14 00:58:11;;;;;;;;;14.67;14.33;;;;;19.25;75.62;100201.91;5061745;28;45955;-74
2022/06/14 01:01:01;;;;;;;;;14.00;13.33;;;;;18.93;75.19;100145.78;5079714;28;45433;-75
2022/06/14 01:03:39;;;;;;;;;15.00;14.67;;;;;19.25;75.51;100198.38;5078996;28;45367;-74
2022/06/14 01:06:11;;;;;;;;;17.00;14.67;;;;;19.21;75.47;100180.78;5080358;28;45506;-75
2022/06/14 01:08:46;;;;;;;;;14.33;13.33;;;;;19.20;74.92;100186.94;5080018;27;45410;-74
2022/06/14 01:11:18;;;;;;;;;14.33;13.33;;;;;19.19;75.34;100179.91;5080473;28;45216;-75
2022/06/14 01:13:44;;;;;;;;;13.67;12.00;;;;;19.10;75.55;100175.63;5080136;28;45442;-74
2022/06/14 01:16:13;;;;;;;;;17.00;16.00;;;;;19.15;75.82;100173.78;5081299;28;45333;-75
2022/06/14 01:18:39;;;;;;;;;15.33;14.33;;;;;19.15;75.96;100170.25;5080638;28;45583;-74
2022/06/14 01:21:05;;;;;;;;;17.33;13.00;;;;;19.16;76.06;100174.66;5080851;28;45409;-74
2022/06/14 01:23:31;;;;;;;;;13.67;12.67;;;;;19.14;75.33;100172.03;5080828;28;45245;-74
2022/06/14 01:26:17;;;;;;;;;14.00;13.33;;;;;19.09;75.63;100168.56;5080983;28;45323;-74
2022/06/14 01:28:48;;;;;;;;;17.33;13.67;;;;;19.01;75.23;100144.81;5080695;28;45426;-74
2022/06/14 01:31:17;;;;;;;;;13.67;13.33;;;;;18.79;75.50;100133.56;5081793;28;45774;-74
2022/06/14 01:33:52;;;;;;;;;17.00;13.00;;;;;18.95;75.39;100154.59;5081885;28;45365;-75
2022/06/14 01:36:26;;;;;;;;;15.33;14.67;;;;;18.93;75.47;100156.38;5081305;28;44722;-74
2022/06/14 01:38:53;;;;;;;;;17.00;15.00;;;;;18.84;76.19;100146.75;5062432;28;46402;-75
2022/06/14 01:41:29;;;;;;;;;15.67;13.67;;;;;18.79;76.75;100144.16;5080463;28;45422;-74
2022/06/14 01:44:20;;;;;;;;;16.00;14.00;;;;;18.79;77.12;100135.31;5080728;28;45443;-75
2022/06/14 01:47:10;;;;;;;;;16.33;15.00;;;;;18.80;77.04;100142.38;5081284;28;45181;-74
2022/06/14 01:52:53;;;;;;;;;15.67;14.00;;;;;18.82;76.53;100135.31;5081031;28;45446;-73
2022/06/14 01:55:48;;;;;;;;;16.00;14.33;;;;;18.82;76.59;100135.31;5081573;28;45292;-74
2022/06/14 01:58:31;;;;;;;;;14.33;14.00;;;;;18.83;76.35;100131.78;5081436;28;45451;-74
2022/06/14 02:01:21;;;;;;;;;14.67;14.33;;;;;18.83;76.25;100130.00;5080805;28;45135;-74
2022/06/14 02:06:55;;;;;;;;;17.67;15.33;;;;;18.84;76.02;100126.47;5081273;28;45422;-75
2022/06/14 02:09:21;;;;;;;;;17.00;14.33;;;;;18.86;76.18;100132.63;5080856;28;45406;-74
2022/06/14 02:11:47;;;;;;;;;14.67;14.00;;;;;18.88;76.29;100114.09;5080663;28;45798;-74
2022/06/14 02:14:24;;;;;;;;;12.00;11.33;;;;;18.87;75.87;100101.75;5082190;28;45398;-74
2022/06/14 02:17:03;;;;;;;;;15.33;15.00;;;;;18.87;76.47;100099.09;5084741;28;45422;-73
2022/06/14 02:19:32;;;;;;;;;15.67;14.67;;;;;18.89;76.44;100102.59;5084332;28;46159;-75
2022/06/14 02:22:06;;;;;;;;;18.00;15.67;;;;;18.77;76.29;100082.41;5084185;27;46083;-74
2022/06/14 02:24:41;;;;;;;;;17.00;15.33;;;;;18.83;75.68;100094.72;5084533;28;45309;-75
2022/06/14 02:27:20;;;;;;;;;18.00;16.00;;;;;18.94;75.56;100110.47;5083746;28;45433;-74
2022/06/14 02:29:53;;;;;;;;;16.33;14.67;;;;;18.49;75.62;100034.22;5080442;28;45280;-74
2022/06/14 02:33:01;;;;;;;;;15.00;15.00;;;;;17.03;75.71;99833.00;5079850;28;45459;-74
2022/06/14 02:35:36;;;;;;;;;13.00;13.00;;;;;18.83;76.70;100100.91;5016529;28;46041;-74
2022/06/14 02:38:15;;;;;;;;;14.00;14.00;;;;;18.83;76.19;100092.94;5081552;28;45279;-74
2022/06/14 02:41:06;;;;;;;;;17.33;14.00;;;;;18.83;76.46;100084.16;5083873;28;45435;-74
2022/06/14 02:43:38;;;;;;;;;15.00;15.00;;;;;18.43;75.95;100018.41;5082574;28;45435;-75
2022/06/14 02:46:19;;;;;;;;;14.33;13.00;;;;;18.80;76.11;100078.88;5082617;27;45389;-74
2022/06/14 02:49:10;;;;;;;;;17.67;16.00;;;;;18.81;76.21;100086.81;5083360;28;45299;-74
2022/06/14 02:51:47;;;;;;;;;19.33;15.67;;;;;18.78;76.12;100086.81;5083156;28;45382;-74
2022/06/14 02:54:23;;;;;;;;;17.67;15.67;;;;;18.85;76.24;100088.53;5081980;28;45999;-74
2022/06/14 02:56:57;;;;;;;;;15.33;14.00;;;;;18.90;76.08;100093.78;5081680;28;45789;-74
2022/06/14 02:59:29;;;;;;;;;19.67;18.00;;;;;18.93;75.83;100106.09;5081921;27;45367;-74
2022/06/14 03:02:00;;;;;;;;;15.33;15.33;;;;;18.92;75.70;100094.63;5082009;28;45354;-75
2022/06/14 03:04:36;;;;;;;;;16.00;15.00;;;;;18.85;75.13;100077.94;5080894;28;46090;-74
2022/06/14 03:07:15;;;;;;;;;13.67;13.00;;;;;18.86;75.81;100081.44;5080619;28;45370;-74
2022/06/14 03:09:43;;;;;;;;;17.00;15.67;;;;;18.85;76.55;100085.00;5080931;28;45414;-74
2022/06/14 03:12:14;;;;;;;;;19.33;17.00;;;;;18.85;77.13;100080.59;5082447;28;45545;-75
2022/06/14 03:15:04;;;;;;;;;15.33;14.33;;;;;18.89;76.59;100084.06;5082183;28;46334;-74
2022/06/14 03:17:49;;;;;;;;;16.33;15.00;;;;;18.93;76.74;100090.22;5083173;28;45464;-74
2022/06/14 03:20:27;;;;;;;;;22.00;15.00;;;;;18.60;76.36;100020.84;5084016;28;45727;-74
2022/06/14 03:23:05;;;;;;;;;15.00;14.67;;;;;18.97;76.31;100068.09;5083216;28;45449;-74
2022/06/14 03:25:33;;;;;;;;;18.33;16.00;;;;;18.94;76.44;100069.03;5081997;28;46026;-74
2022/06/14 03:28:08;;;;;;;;;15.67;15.00;;;;;18.94;76.23;100079.63;5082832;28;45406;-74
2022/06/14 03:30:57;;;;;;;;;18.67;18.33;;;;;18.93;76.06;100079.63;5084654;28;45522;-74
2022/06/14 03:33:30;;;;;;;;;16.67;15.33;;;;;18.43;75.75;99998.13;5082491;28;45689;-74
2022/06/14 03:35:56;;;;;;;;;16.33;15.00;;;;;18.81;76.03;100076.22;5084253;28;46280;-74
2022/06/14 03:38:36;;;;;;;;;15.33;15.33;;;;;18.73;75.93;100067.47;5084188;27;45424;-75
2022/06/14 03:41:04;;;;;;;;;18.33;17.33;;;;;18.68;76.58;100053.41;5085221;28;45553;-74
2022/06/14 03:43:32;;;;;;;;;22.00;18.33;;;;;18.70;77.28;100041.03;5083792;28;45469;-74
2022/06/14 03:46:13;;;;;;;;;19.67;15.00;;;;;18.77;77.33;100069.19;5086001;28;45517;-74
2022/06/14 03:48:46;;;;;;;;;17.00;15.33;;;;;18.66;76.55;100071.06;5087105;28;45450;-74
2022/06/14 03:51:21;;;;;;;;;21.67;18.67;;;;;18.84;76.80;100080.59;5089984;28;45462;-74
2022/06/14 03:54:01;;;;;;;;;20.67;16.67;;;;;18.80;77.10;100068.28;5091625;28;45454;-74
2022/06/14 03:56:59;;;;;;;;;15.67;15.00;;;;;18.78;77.33;100059.47;5092583;28;45276;-74
2022/06/14 03:59:27;;;;;;;;;18.67;18.33;;;;;18.78;77.70;100063.00;5089192;28;45180;-75
2022/06/14 04:02:02;;;;;;;;;20.00;16.67;;;;;18.62;77.50;100027.00;5089896;28;45423;-74
2022/06/14 04:04:51;;;;;;;;;17.00;17.00;;;;;18.69;77.26;100023.41;5092400;28;45421;-74
2022/06/14 04:07:45;;;;;;;;;17.67;17.33;;;;;18.71;77.85;100018.09;5093235;27;45414;-74
2022/06/14 04:10:33;;;;;;;;;20.00;16.67;;;;;18.81;77.71;100044.47;5084372;27;45371;-74
2022/06/14 04:13:12;;;;;;;;;22.33;18.67;;;;;18.78;77.19;100027.72;5084897;28;45328;-75
2022/06/14 04:15:56;;;;;;;;;22.00;18.33;;;;;18.64;77.06;100017.28;5083834;28;45264;-74
2022/06/14 04:18:51;;;;;;;;;20.33;18.67;;;;;18.81;77.19;100063.00;5083730;28;45473;-74
2022/06/14 04:21:44;;;;;;;;;21.67;19.33;;;;;18.83;77.47;100065.63;5084482;28;45359;-74
2022/06/14 04:24:21;;;;;;;;;17.67;16.33;;;;;18.81;77.31;100065.63;5081998;28;45307;-74
2022/06/14 04:27:14;;;;;;;;;22.33;20.33;;;;;18.80;77.60;100063.91;5081528;28;45334;-74
2022/06/14 04:29:50;;;;;;;;;20.00;18.67;;;;;18.80;77.80;100061.25;5085534;28;46250;-74
2022/06/14 04:32:33;;;;;;;;;18.00;17.67;;;;;18.82;77.80;100063.84;5084943;27;45197;-74
2022/06/14 04:35:07;;;;;;;;;20.00;18.67;;;;;18.80;77.55;100061.25;5091649;28;45334;-75
2022/06/14 04:37:53;;;;;;;;;16.00;16.00;;;;;18.80;78.05;100070.94;5090776;28;44832;-72
2022/06/14 04:40:34;;;;;;;;;21.00;18.33;;;;;18.82;77.77;100074.44;5083870;28;45539;-75
2022/06/14 04:43:08;;;;;;;;;18.67;15.33;;;;;18.82;77.27;100088.56;5082513;28;45481;-75
2022/06/14 04:45:51;;;;;;;;;17.33;15.33;;;;;18.82;77.42;100083.28;5080574;28;45394;-74
2022/06/14 04:48:24;;;;;;;;;18.00;17.00;;;;;18.84;76.95;100073.56;5084992;27;45530;-74
2022/06/14 04:50:55;;;;;;;;;17.00;16.00;;;;;18.71;77.05;100044.56;5097418;27;44998;-75
2022/06/14 04:53:28;;;;;;;;;18.67;18.67;;;;;18.98;77.18;100072.50;5105970;27;45425;-72
2022/06/14 04:56:01;;;;;;;;;18.00;17.67;;;;;19.13;76.97;100067.00;5080874;27;45673;-75
2022/06/14 04:58:51;;;;;;;;;17.00;17.00;;;;;19.30;76.15;100068.56;5107233;27;44911;-74
2022/06/14 05:01:26;;;;;;;;;19.00;17.00;;;;;19.24;75.00;100025.41;5098226;27;45345;-74
2022/06/14 05:04:12;;;;;;;;;13.00;12.67;;;;;19.58;74.51;100063.78;5099472;27;45376;-71
2022/06/14 05:06:46;;;;;;;;;18.50;18.50;;;;;19.67;74.06;100058.31;5101947;27;45380;-72
2022/06/14 05:09:27;;;;;;;;;21.00;17.00;;;;;19.55;73.88;100019.63;5099619;27;45488;-72
2022/06/14 05:12:34;;;;;;;;;16.33;15.33;;;;;19.97;73.31;100064.94;5101846;27;45497;-73
2022/06/14 05:15:35;;;;;;;;;15.67;15.00;;;;;20.20;72.96;100045.13;5060320;27;45409;-73
2022/06/14 05:18:10;;;;;;;;;18.33;17.67;;;;;20.31;72.02;100029.88;5086087;27;45444;-74
2022/06/14 05:20:43;;;;;;;;;15.33;14.67;;;;;20.64;72.06;100046.97;5097633;27;45268;-73
2022/06/14 05:23:35;;;;;;;;;17.33;16.67;;;;;20.81;71.21;100057.28;5099038;27;45409;-74
2022/06/14 05:26:29;;;;;;;;;17.00;16.00;;;;;20.95;70.38;100051.69;5102794;27;45440;-74
2022/06/14 05:29:19;;;;;;;;;16.33;16.00;;;;;21.04;70.71;100061.25;5102232;27;45464;-74
2022/06/14 05:31:54;;;;;;;;;18.00;16.67;;;;;20.99;70.43;100039.22;5104386;27;45595;-74
2022/06/14 05:34:54;;;;;;;;;14.67;14.00;;;;;20.97;70.56;100023.34;5106255;27;46390;-74
2022/06/14 05:37:41;;;;;;;;;15.00;15.00;;;;;20.90;70.59;100019.03;5103538;27;45449;-74
2022/06/14 05:40:18;;;;;;;;;17.00;15.67;;;;;21.06;70.81;100056.78;5095713;27;44686;-74
2022/06/14 05:42:52;;;;;;;;;14.33;12.67;;;;;21.09;70.41;100064.69;5085316;28;45418;-74
2022/06/14 05:45:22;;;;;;;;;14.33;13.33;;;;;21.11;70.36;100051.34;5070519;28;46779;-74
2022/06/14 05:47:53;;;;;;;;;17.67;15.00;;;;;21.06;70.34;100028.44;5088950;28;45259;-75
2022/06/14 05:50:25;;;;;;;;;15.67;15.00;;;;;21.14;70.96;100022.97;5093461;28;45533;-73
2022/06/14 05:53:05;;;;;;;;;17.33;16.33;;;;;21.27;71.18;100007.63;5089457;28;45308;-73
2022/06/14 05:55:44;;;;;;;;;18.33;16.67;;;;;21.49;70.99;100015.13;5092869;28;45284;-74
2022/06/14 05:58:40;;;;;;;;;18.00;15.00;;;;;21.84;70.40;100036.44;5090043;28;45498;-74
2022/06/14 06:01:16;;;;;;;;;17.00;15.67;;;;;22.46;68.82;100004.72;5087157;28;45373;-74
2022/06/14 06:04:09;;;;;;;;;14.67;14.00;;;;;23.23;66.55;100020.25;5092770;28;45490;-73
2022/06/14 06:06:43;;;;;;;;;17.00;16.00;;;;;23.56;65.33;100016.59;5094437;28;45755;-74
2022/06/14 06:09:26;;;;;;;;;16.67;14.33;;;;;23.85;64.22;100002.31;5096254;28;44921;-75
2022/06/14 06:12:03;;;;;;;;;16.33;16.33;;;;;24.69;62.24;100005.66;5094043;28;45257;-74
2022/06/14 06:14:35;;;;;;;;;16.00;14.00;;;;;25.99;59.18;100002.34;5092615;28;45595;-74
2022/06/14 06:17:03;;;;;;;;;16.00;16.00;;;;;27.26;54.81;99997.63;5096719;28;45313;-74
2022/06/14 06:19:47;;;;;;;;;18.00;17.00;;;;;27.79;53.36;99988.72;5092799;28;45453;-74
2022/06/14 06:22:18;;;;;;;;;15.33;13.33;;;;;27.41;54.54;99972.72;5092113;28;45231;-73
2022/06/14 06:24:53;;;;;;;;;16.33;14.00;;;;;28.40;54.31;99970.44;5090074;28;45333;-74
2022/06/14 06:27:27;;;;;;;;;17.00;17.00;;;;;29.30;50.37;99962.78;5090660;28;45303;-74
2022/06/14 06:29:59;;;;;;;;;13.67;12.33;;;;;30.26;47.59;100008.38;5077453;28;45442;-74
2022/06/14 06:32:28;;;;;;;;;15.00;14.00;;;;;29.89;47.94;99980.97;5098790;28;45263;-75
2022/06/14 06:34:54;;;;;;;;;15.00;14.00;;;;;29.20;49.88;99993.84;5097230;28;45364;-74
2022/06/14 06:37:37;;;;;;;;;13.33;12.00;;;;;28.00;52.82;99984.13;5098634;28;45080;-73
2022/06/14 06:40:09;;;;;;;;;15.00;15.00;;;;;27.14;54.57;99997.22;5096157;28;45577;-73
2022/06/14 06:42:52;;;;;;;;;14.00;14.00;;;;;27.20;55.01;99971.91;5096511;28;45311;-73
2022/06/14 06:45:25;;;;;;;;;12.00;12.00;;;;;27.55;54.46;99938.00;5094576;28;45458;-74
2022/06/14 06:48:30;;;;;;;;;15.00;14.00;;;;;27.73;53.46;99944.25;5094937;28;46957;-74
2022/06/14 06:51:02;;;;;;;;;17.00;16.00;;;;;29.31;50.41;99999.50;5093382;28;45318;-74
2022/06/14 06:53:40;;;;;;;;;13.00;12.33;;;;;29.51;50.13;100025.28;5076150;28;45489;-74
2022/06/14 06:56:13;;;;;;;;;15.67;15.67;;;;;29.13;49.84;100032.84;5096391;28;45483;-74
2022/06/14 06:58:39;;;;;;;;;13.67;12.67;;;;;29.64;50.04;100064.94;5094377;27;45503;-74
2022/06/14 07:01:14;;;;;;;;;13.00;12.67;;;;;31.21;45.99;100071.78;5098299;27;45726;-75
2022/06/14 07:03:42;;;;;;;;;14.67;14.00;;;;;32.54;43.00;100064.78;5095209;27;45445;-77
2022/06/14 07:06:19;;;;;;;;;14.00;12.33;;;;;32.95;42.32;100036.72;5091247;28;45399;-77
2022/06/14 07:09:33;;;;;;;;;15.33;14.67;;;;;31.49;43.73;100049.31;5100244;28;45347;-76
2022/06/14 07:12:05;;;;;;;;;17.33;15.33;;;;;30.67;45.08;100032.81;5088147;28;44770;-77
2022/06/14 07:14:40;;;;;;;;;14.00;14.00;;;;;30.18;46.61;100025.00;5101462;28;45459;-74
2022/06/14 07:17:14;;;;;;;;;14.33;14.00;;;;;30.03;47.57;100024.09;5102122;28;45327;-74
2022/06/14 07:19:42;;;;;;;;;11.33;11.33;;;;;30.00;47.07;100023.41;5102953;28;46256;-76
2022/06/14 07:22:23;;;;;;;;;13.00;13.00;;;;;30.04;47.28;100016.88;5102001;28;45316;-75
2022/06/14 07:25:04;;;;;;;;;12.00;11.33;;;;;30.57;47.02;99988.53;5099826;28;45478;-75
2022/06/14 07:28:09;;;;;;;;;13.67;13.33;;;;;33.08;41.67;100006.91;5099959;28;44704;-73
2022/06/14 07:30:45;;;;;;;;;13.33;12.67;;;;;34.29;39.31;99978.03;5027583;28;45625;-73
2022/06/14 07:33:12;;;;;;;;;11.67;10.67;;;;;35.33;38.24;99974.25;5099164;28;45798;-74
2022/06/14 07:35:54;;;;;;;;;13.67;13.67;;;;;35.09;36.96;99938.22;5095481;28;44765;-73
2022/06/14 07:38:59;;;;;;;;;14.00;13.00;;;;;36.55;35.14;100011.06;5096804;28;44738;-73
2022/06/14 07:41:37;;;;;;;;;12.00;11.00;;;;;37.28;34.04;100012.84;5097936;27;46177;-76
2022/06/14 07:44:15;;;;;;;;;11.33;11.00;;;;;38.70;32.02;100005.97;5075018;27;45417;-74
2022/06/14 07:47:03;;;;;;;;;13.00;13.00;;;;;39.69;29.85;100002.59;5109537;27;44773;-71
2022/06/14 07:49:43;;;;;;;;;11.00;10.67;;;;;39.34;30.74;100024.25;5096030;27;44754;-73
2022/06/14 07:52:20;;;;;;;;;12.67;12.00;;;;;37.53;33.06;100038.72;5079050;28;45199;-74
2022/06/14 07:54:50;;;;;;;;;11.00;10.00;;;;;36.10;35.21;100027.59;5075691;28;45449;-74
2022/06/14 07:57:23;;;;;;;;;12.67;11.67;;;;;35.15;37.21;100028.16;5098950;27;45549;-73
2022/06/14 07:59:54;;;;;;;;;12.00;11.67;;;;;34.50;38.13;100024.31;5096720;28;45472;-73
2022/06/14 08:02:37;;;;;;;;;10.67;10.67;;;;;34.51;40.04;100009.75;5091299;28;45398;-74
2022/06/14 08:05:15;;;;;;;;;13.67;13.67;;;;;34.03;39.31;99952.94;5094796;28;44824;-79
2022/06/14 08:07:45;;;;;;;;;12.00;12.00;;;;;34.01;39.31;99999.13;5102941;28;44826;-81
2022/06/14 08:10:20;;;;;;;;;12.00;12.00;;;;;35.00;37.48;100035.72;5102298;27;44801;-81
2022/06/14 08:12:58;;;;;;;;;13.00;13.00;;;;;35.28;37.60;100029.91;5099474;28;45489;-73
2022/06/14 08:15:47;;;;;;;;;14.33;14.00;;;;;34.49;39.20;100009.00;5102104;27;44816;-79
2022/06/14 08:18:36;;;;;;;;;15.33;14.00;;;;;34.77;38.74;99994.13;5098597;27;44754;-73
2022/06/14 08:21:02;;;;;;;;;17.00;16.33;;;;;37.75;34.39;99966.75;5098042;28;44831;-74
2022/06/14 08:23:47;;;;;;;;;11.00;10.33;;;;;39.88;30.95;99955.13;5098292;27;45984;-75
2022/06/14 08:26:31;;;;;;;;;11.00;11.00;;;;;40.61;29.79;99888.22;5103128;27;44765;-78
2022/06/14 08:29:24;;;;;;;;;14.00;13.00;;;;;41.36;28.67;99950.50;5088496;28;45217;-75
2022/06/14 08:32:12;;;;;;;;;11.00;11.00;;;;;42.25;27.72;99976.28;5103804;28;45727;-76
2022/06/14 08:35:09;;;;;;;;;11.00;10.00;;;;;43.56;26.93;99996.97;5104294;28;46748;-77
2022/06/14 08:37:53;;;;;;;;;12.67;12.00;;;;;44.57;25.96;100008.72;5104964;28;44775;-74
2022/06/14 08:40:43;;;;;;;;;12.00;12.00;;;;;44.44;24.92;99924.81;5104950;27;44869;-74
2022/06/14 08:43:12;;;;;;;;;13.00;12.00;;;;;44.50;25.62;100010.53;5104526;28;44781;-75
2022/06/14 08:46:03;;;;;;;;;11.33;11.33;;;;;43.95;25.45;99985.84;5102871;27;45965;-74
2022/06/14 08:48:41;;;;;;;;;12.00;12.00;;;;;44.21;25.83;99962.59;5100399;28;45164;-74
2022/06/14 08:51:31;;;;;;;;;13.33;13.00;;;;;44.71;24.78;99963.81;5099233;28;45361;-79
2022/06/14 08:54:09;;;;;;;;;11.67;11.00;;;;;45.24;24.30;99953.44;5103827;28;44872;-79
2022/06/14 08:57:07;;;;;;;;;11.33;11.33;;;;;46.11;23.65;99968.16;5099925;28;45520;-74
2022/06/14 08:59:54;;;;;;;;;12.67;12.00;;;;;47.10;22.66;99950.50;5098845;28;44729;-75
2022/06/14 09:02:32;;;;;;;;;12.33;12.33;;;;;47.68;22.00;99940.88;5099691;28;44758;-73
2022/06/14 09:05:40;;;;;;;;;12.33;12.00;;;;;47.75;21.74;99886.38;5096630;28;44663;-73
2022/06/14 09:08:34;;;;;;;;;10.00;10.00;;;;;48.41;21.28;99949.16;5079209;28;47280;-78
2022/06/14 09:11:08;;;;;;;;;10.00;10.00;;;;;48.78;20.74;99955.06;5085461;27;45307;-80
2022/06/14 09:14:06;;;;;;;;;11.33;11.00;;;;;49.17;20.65;99979.03;5074247;27;45861;-74
2022/06/14 09:16:52;;;;;;;;;9.67;9.67;;;;;49.15;20.06;99920.16;5074550;27;45581;-78
2022/06/14 09:19:17;;;;;;;;;9.67;9.33;;;;;49.59;19.03;99980.53;5079115;27;46018;-76
2022/06/14 09:22:06;;;;;;;;;9.33;9.33;;;;;49.80;19.30;99984.88;5076291;28;45462;-77
2022/06/14 09:24:56;;;;;;;;;13.00;10.67;;;;;50.20;19.00;99973.44;5076020;28;45692;-79
2022/06/14 09:27:44;;;;;;;;;11.67;9.00;;;;;50.56;19.02;99982.91;5061002;28;45387;-91
2022/06/14 09:30:44;;;;;;;;;10.67;10.33;;;;;50.71;18.55;99967.56;5060872;28;46213;-91
2022/06/14 09:33:41;;;;;;;;;9.67;9.67;;;;;50.25;19.75;99955.00;5061056;28;45495;-90
2022/06/14 09:36:50;;;;;;;;;11.67;11.00;;;;;50.88;18.90;99964.16;5058622;28;45407;-81
2022/06/14 09:39:27;;;;;;;;;11.67;11.33;;;;;51.00;18.38;99917.81;5060862;28;45509;-84
2022/06/14 09:42:30;;;;;;;;;10.00;9.67;;;;;51.49;18.25;99968.72;5041958;28;46803;-73
2022/06/14 09:45:36;;;;;;;;;11.33;9.33;;;;;51.34;18.69;99965.50;5069368;28;45342;-85
2022/06/14 09:48:35;;;;;;;;;9.67;9.67;;;;;51.10;18.87;99967.31;5070012;28;45395;-84
2022/06/14 09:51:35;;;;;;;;;11.00;10.00;;;;;50.90;19.37;99973.16;5072840;27;45356;-73
2022/06/14 09:54:21;;;;;;;;;10.33;10.33;;;;;50.52;19.02;99983.41;5074511;28;46182;-77
2022/06/14 09:57:12;;;;;;;;;10.00;10.00;;;;;50.53;18.81;99973.13;5074714;28;45315;-73
2022/06/14 09:59:56;;;;;;;;;10.00;9.33;;;;;50.87;19.28;99984.72;5077786;28;45545;-72
2022/06/14 10:02:28;;;;;;;;;10.33;9.33;;;;;51.14;18.51;99990.84;5078051;28;45365;-72
2022/06/14 10:05:19;;;;;;;;;13.00;10.50;;;;;50.98;18.55;99991.44;5077286;28;45473;-72
2022/06/14 10:07:54;;;;;;;;;11.00;11.00;;;;;50.96;19.20;99988.03;5077414;28;45446;-80
2022/06/14 10:10:43;;;;;;;;;10.75;10.50;;;;;50.63;18.89;99970.66;5075916;28;45469;-72
2022/06/14 10:13:29;;;;;;;;;11.25;11.25;;;;;50.99;19.00;100007.88;5075656;28;45613;-76
2022/06/14 10:16:09;;;;;;;;;10.25;10.00;;;;;50.88;19.60;100000.31;5075512;28;46291;-77
2022/06/14 10:18:56;;;;;;;;;10.75;10.50;;;;;50.73;19.46;99987.63;5077792;28;45477;-73
2022/06/14 10:21:36;;;;;;;;;11.25;11.25;;;;;50.54;19.57;99997.91;5075618;27;45520;-74
2022/06/14 10:24:22;;;;;;;;;12.75;12.00;;;;;50.68;19.77;99990.28;5098291;27;45675;-73
2022/06/14 10:30:19;;;;;;;;;11.50;11.50;;;;;50.22;19.46;99999.06;5097684;27;45534;-75
2022/06/14 10:33:03;;;;;;;;;12.25;12.00;;;;;50.23;19.32;99987.72;5098211;27;45389;-73
2022/06/14 10:35:44;;;;;;;;;12.00;10.75;;;;;49.77;19.88;100000.06;5100341;27;45373;-74
2022/06/14 10:38:25;;;;;;;;;32.50;31.25;;;;;49.75;20.32;99993.88;5083335;27;45953;-76
2022/06/14 10:41:08;;;;;;;;;12.00;12.00;;;;;49.41;20.07;99948.81;5102586;27;45935;-73
2022/06/14 10:43:51;;;;;;;;;11.50;11.00;;;;;49.58;20.27;99984.34;5102876;27;45354;-82
2022/06/14 10:46:28;;;;;;;;;10.75;10.75;;;;;49.04;20.03;99981.00;5093230;27;45502;-77
2022/06/14 10:49:06;;;;;;;;;13.50;12.75;;;;;48.43;20.71;99994.16;5061830;28;45363;-75
2022/06/14 10:51:50;;;;;;;;;11.50;11.00;;;;;48.51;21.99;99982.84;5064801;28;45225;-74
2022/06/14 10:54:20;;;;;;;;;11.00;10.75;;;;;48.52;21.83;99980.91;5062637;28;45540;-73
2022/06/14 10:57:03;;;;;;;;;9.67;9.33;;;;;48.54;21.67;99989.88;5062255;28;45297;-80
2022/06/14 10:59:48;;;;;;;;;12.33;12.33;;;;;48.44;21.98;99983.91;5060153;28;45595;-76
2022/06/14 11:02:35;;;;;;;;;12.00;11.75;;;;;48.04;22.63;99986.72;5060001;28;45392;-73
2022/06/14 11:05:14;;;;;;;;;12.00;12.00;;;;;47.27;22.91;99951.00;5060659;28;45458;-75
2022/06/14 11:07:54;;;;;;;;;15.00;13.00;;;;;45.37;24.04;99841.63;5063339;28;45319;-81
2022/06/14 11:10:31;;;;;;;;;12.67;12.67;;;;;45.09;25.13;99974.72;5062016;28;46313;-81
2022/06/14 11:13:26;;;;;;;;;12.67;12.67;;;;;44.11;26.20;99946.34;5064893;28;45249;-81
2022/06/14 11:16:16;;;;;;;;;15.33;13.67;;;;;43.76;27.01;99986.38;5062118;28;45324;-81
2022/06/14 11:18:58;;;;;;;;;14.67;13.67;;;;;43.24;27.83;99987.84;5062998;28;45335;-79
2022/06/14 11:21:26;;;;;;;;;15.67;14.33;;;;;42.63;28.26;99976.56;5060484;28;45910;-81
2022/06/14 11:24:09;;;;;;;;;13.33;12.67;;;;;42.14;28.86;99963.75;5060800;28;45465;-80
2022/06/14 11:26:46;;;;;;;;;13.67;13.67;;;;;41.70;29.20;99953.13;5062431;28;45462;-81
2022/06/14 11:29:36;;;;;;;;;15.00;14.00;;;;;41.30;30.40;99952.88;5043130;28;45506;-80
2022/06/14 11:32:17;;;;;;;;;14.33;14.00;;;;;41.01;30.81;99960.63;5040835;28;45340;-80
2022/06/14 11:35:02;;;;;;;;;14.00;13.67;;;;;40.82;31.47;99957.13;5060388;28;45422;-73
2022/06/14 11:38:01;;;;;;;;;14.67;13.67;;;;;40.70;31.40;99942.84;5062339;28;45502;-78
2022/06/14 11:40:30;;;;;;;;;16.00;15.33;;;;;40.47;31.92;99934.38;5076200;28;45275;-81
2022/06/14 11:43:21;;;;;;;;;15.00;15.00;;;;;40.16;32.22;99937.56;5060551;28;45332;-81
2022/06/14 11:46:12;;;;;;;;;17.00;16.33;;;;;38.83;33.16;99758.03;5060948;28;45448;-78
2022/06/14 11:48:44;;;;;;;;;16.67;15.33;;;;;39.74;33.27;99921.81;5060391;28;45315;-82
2022/06/14 11:51:35;;;;;;;;;16.00;16.00;;;;;39.61;34.05;99902.22;5059980;28;45360;-80
2022/06/14 11:54:16;;;;;;;;;16.00;16.00;;;;;39.53;34.23;99896.69;5059993;28;46125;-82
2022/06/14 11:56:56;;;;;;;;;17.00;17.00;;;;;39.10;35.29;99851.88;5059839;28;45541;-81
2022/06/14 11:59:58;;;;;;;;;17.67;16.00;;;;;39.08;35.23;99886.69;5060163;28;45352;-81
2022/06/14 12:02:41;;;;;;;;;16.00;15.33;;;;;38.88;35.24;99872.25;5058724;28;45240;-81
2022/06/14 12:05:31;;;;;;;;;18.00;16.67;;;;;38.29;36.25;99819.84;5059987;28;46284;-77
2022/06/14 12:08:13;;;;;;;;;20.33;19.33;;;;;38.12;36.63;99806.00;5058798;28;45446;-82
2022/06/14 12:10:55;;;;;;;;;19.67;17.67;;;;;38.51;36.38;99875.88;5058770;28;45477;-83
2022/06/14 12:13:44;;;;;;;;;16.00;15.00;;;;;38.42;36.69;99871.31;5059237;28;45466;-79
2022/06/14 12:16:22;;;;;;;;;15.00;15.00;;;;;38.48;36.61;99882.50;5059813;28;46302;-73
2022/06/14 12:19:03;;;;;;;;;16.33;16.00;;;;;38.24;36.32;99824.88;5058522;28;45338;-72
2022/06/14 12:21:46;;;;;;;;;17.33;17.00;;;;;38.59;36.63;99879.59;5040458;28;45454;-73